»·PEaware :: UAL870 KLAS-KSLC

UAL870 :: KLAS-KSLC

FLIGHT INFORMATION

Flight Status: Arrived
Operator:
United Airlines
More flights by this operator :: More flights under this callsign
Pilot: Alex C. (14758)
Aircraft: CANADAIR CL-600 CRJ-200
(CRJ2)
More flights by this aircraft type
Origin: KLAS McCarran Intl
United States
Destination: KSLC Salt Lake City Intl
United States
More flights between these airports :: More routes between these airports
Route: +STAAV8 MLF DELTA5
File this flight plan on PilotEdge
Remarks:
Altitude:
(Current/Filed)
31,000ft
Speed:
(Current/Filed)
450kts
Departed: 28-Oct-18 12:25 PM
Arrived: 28-Oct-18 01:35 PM
Distance/Time
Traveled:
319nm/1:10
Distance/Time
To Go:
Arrived

Flight Plot

Page will automatically refresh every two minutes.

Flight plan parsing failed; only flown route is shown


Map Options




Map Legend


Flown Route
Filed Route
Departure Airport
Arrival Airport
Navaid (VOR, NDB)
Fix

Horizontal Profiles

Position Reports

Time Latitude Longitude Heading Altitude Ground
Speed
28-Oct-18 11:36 36.080327 -115.147242 61 2186ft 0kts
28-Oct-18 11:37 36.080327 -115.147242 61 2186ft 0kts
28-Oct-18 11:38 36.080327 -115.147242 61 2186ft 0kts
28-Oct-18 11:39 36.080327 -115.147242 61 2186ft 0kts
28-Oct-18 11:40 36.080327 -115.147242 61 2186ft 0kts
28-Oct-18 11:41 36.080327 -115.147242 61 2186ft 0kts
28-Oct-18 11:42 36.080327 -115.147242 61 2186ft 0kts
28-Oct-18 11:43 36.080327 -115.147242 61 2186ft 0kts
28-Oct-18 11:44 36.080327 -115.147242 61 2186ft 0kts
28-Oct-18 11:45 36.080327 -115.147242 61 2186ft 0kts
28-Oct-18 11:46 36.080327 -115.147242 61 2186ft 0kts
28-Oct-18 11:47 36.080327 -115.147242 61 2186ft 0kts
28-Oct-18 11:48 36.080327 -115.147242 61 2186ft 0kts
28-Oct-18 11:49 36.080327 -115.147242 61 2186ft 0kts
28-Oct-18 11:50 36.080327 -115.147242 61 2186ft 0kts
28-Oct-18 11:51 36.080327 -115.147242 61 2186ft 0kts
28-Oct-18 11:52 36.080327 -115.147242 61 2186ft 0kts
28-Oct-18 11:53 36.080327 -115.147242 61 2186ft 0kts
28-Oct-18 11:54 36.080327 -115.147242 61 2186ft 0kts
28-Oct-18 11:55 36.080327 -115.147242 61 2186ft 0kts
28-Oct-18 11:56 36.080327 -115.147242 61 2186ft 0kts
28-Oct-18 11:57 36.080327 -115.147242 61 2186ft 0kts
28-Oct-18 11:58 36.080327 -115.147242 61 2186ft 0kts
28-Oct-18 11:59 36.080327 -115.147242 61 2186ft 0kts
28-Oct-18 12:00 36.080327 -115.147242 61 2186ft 0kts
28-Oct-18 12:01 36.080327 -115.147242 61 2186ft 0kts
28-Oct-18 12:02 36.080327 -115.147242 61 2186ft 0kts
28-Oct-18 12:03 36.080327 -115.147242 61 2186ft 0kts
28-Oct-18 12:04 36.080327 -115.147242 61 2186ft 0kts
28-Oct-18 12:05 36.080327 -115.147242 61 2186ft 0kts
28-Oct-18 12:06 36.080327 -115.147242 61 2186ft 0kts
28-Oct-18 12:07 36.080327 -115.147242 61 2186ft 0kts
28-Oct-18 12:08 36.080327 -115.147242 61 2186ft 0kts
28-Oct-18 12:09 36.080327 -115.147242 61 2186ft 0kts
28-Oct-18 12:10 36.080327 -115.147242 61 2186ft 0kts
28-Oct-18 12:11 36.080327 -115.147242 61 2186ft 0kts
28-Oct-18 12:12 36.080327 -115.147242 61 2186ft 0kts
28-Oct-18 12:13 36.080327 -115.147242 61 2186ft 0kts
28-Oct-18 12:14 36.080327 -115.147242 61 2186ft 0kts
28-Oct-18 12:15 36.080327 -115.147242 61 2186ft 0kts
28-Oct-18 12:16 36.080327 -115.147242 61 2186ft 0kts
28-Oct-18 12:17 36.080327 -115.147244 61 2186ft 0kts
28-Oct-18 12:18 36.080130 -115.148034 158 2186ft 6kts
28-Oct-18 12:19 36.078360 -115.144948 93 2186ft 22kts
28-Oct-18 12:20 36.078260 -115.138686 89 2186ft 29kts
28-Oct-18 12:21 36.077974 -115.132974 152 2186ft 14kts
28-Oct-18 12:22 36.077534 -115.129265 89 2186ft 25kts
28-Oct-18 12:23 36.077517 -115.121720 97 2186ft 12kts
28-Oct-18 12:24 36.077405 -115.121417 148 2186ft 0kts
28-Oct-18 12:25 36.077405 -115.121417 148 2186ft 0kts
28-Oct-18 12:26 36.076483 -115.121500 225 2186ft 11kts
28-Oct-18 12:27 36.076466 -115.136295 269 2186ft 145kts
28-Oct-18 12:28 36.076197 -115.190431 270 3642ft 249kts
28-Oct-18 12:29 36.080972 -115.263511 300 6886ft 283kts
28-Oct-18 12:30 36.140867 -115.290939 17 10777ft 290kts
28-Oct-18 12:31 36.185143 -115.219002 66 13916ft 328kts
28-Oct-18 12:32 36.196861 -115.106411 87 17724ft 350kts
28-Oct-18 12:33 36.198417 -114.982750 88 19048ft 377kts
28-Oct-18 12:34 36.199723 -114.850179 88 22471ft 401kts
28-Oct-18 12:35 36.254182 -114.733755 39 25741ft 417kts
28-Oct-18 12:36 36.346707 -114.642839 36 28717ft 437kts
28-Oct-18 12:37 36.445317 -114.549195 36 30992ft 461kts
28-Oct-18 12:38 36.549511 -114.451805 31 30995ft 470kts
28-Oct-18 12:39 36.659607 -114.366337 31 30999ft 466kts
28-Oct-18 12:40 36.769459 -114.281136 31 30999ft 466kts
28-Oct-18 12:41 36.879141 -114.195751 31 30998ft 467kts
28-Oct-18 12:42 36.989156 -114.109842 31 30997ft 466kts
28-Oct-18 12:43 37.097143 -114.025216 31 30997ft 459kts
28-Oct-18 12:44 37.203187 -113.941861 31 31000ft 455kts
28-Oct-18 12:45 37.310136 -113.857446 31 30999ft 453kts
28-Oct-18 12:46 37.416335 -113.773373 31 30999ft 452kts
28-Oct-18 12:47 37.522206 -113.689310 31 31000ft 451kts
28-Oct-18 12:48 37.628015 -113.604978 31 30999ft 451kts
28-Oct-18 12:49 37.733598 -113.520501 31 30942ft 448kts
28-Oct-18 12:50 37.837630 -113.437021 32 29951ft 442kts
28-Oct-18 12:51 37.939471 -113.355041 32 28800ft 424kts
28-Oct-18 12:52 38.037242 -113.276062 32 27717ft 417kts
28-Oct-18 12:53 38.133950 -113.197678 32 26665ft 410kts
28-Oct-18 12:54 38.228913 -113.120506 32 25496ft 402kts
28-Oct-18 12:55 38.323749 -113.043150 32 23937ft 408kts
28-Oct-18 12:56 38.423682 -112.979501 22 22829ft 401kts
28-Oct-18 12:57 38.525554 -112.925255 22 21817ft 394kts
28-Oct-18 12:58 38.625412 -112.871841 22 20812ft 389kts
28-Oct-18 12:59 38.724435 -112.818762 22 19919ft 383kts
28-Oct-18 13:00 38.818320 -112.769101 21 19065ft 378kts
28-Oct-18 13:02 38.914411 -112.716517 23 18248ft 373kts
28-Oct-18 13:03 39.008184 -112.665657 22 17432ft 370kts
28-Oct-18 13:04 39.101708 -112.614873 22 16866ft 365kts
28-Oct-18 13:05 39.195697 -112.563714 22 16866ft 367kts
28-Oct-18 13:06 39.288508 -112.513030 22 16866ft 367kts
28-Oct-18 13:07 39.386902 -112.477599 14 16866ft 367kts
28-Oct-18 13:08 39.485626 -112.444774 14 16866ft 367kts
28-Oct-18 13:09 39.584064 -112.412046 14 16866ft 367kts
28-Oct-18 13:10 39.683082 -112.378995 14 16866ft 367kts
28-Oct-18 13:11 39.779128 -112.346830 14 16862ft 351kts
28-Oct-18 13:12 39.873141 -112.315320 14 16863ft 344kts
28-Oct-18 13:13 39.965131 -112.284353 14 16866ft 341kts
28-Oct-18 13:14 40.056659 -112.253473 14 16813ft 337kts
28-Oct-18 13:15 40.144978 -112.223579 15 15922ft 334kts
28-Oct-18 13:16 40.233251 -112.193562 15 14152ft 324kts
28-Oct-18 13:17 40.320020 -112.164052 15 13553ft 320kts
28-Oct-18 13:17 40.391284 -112.139743 15 12866ft 310kts
28-Oct-18 13:19 40.480451 -112.109280 14 12866ft 281kts
28-Oct-18 13:19 40.541511 -112.088538 15 11988ft 274kts
28-Oct-18 13:21 40.619546 -112.079198 3 10876ft 247kts
28-Oct-18 13:21 40.673898 -112.083022 356 10862ft 237kts
28-Oct-18 13:22 40.739905 -112.090556 356 10870ft 244kts
28-Oct-18 13:23 40.809168 -112.098742 355 10865ft 255kts
28-Oct-18 13:24 40.881152 -112.107264 355 10867ft 266kts
28-Oct-18 13:25 40.955892 -112.116158 355 10865ft 271kts
28-Oct-18 13:26 41.029171 -112.124911 355 9921ft 261kts
28-Oct-18 13:27 41.095745 -112.118737 41 8893ft 256kts
28-Oct-18 13:28 41.100389 -112.062442 128 8905ft 220kts
28-Oct-18 13:29 41.057527 -112.026915 150 8869ft 188kts
28-Oct-18 13:30 41.013040 -111.998451 168 8397ft 182kts
28-Oct-18 13:31 40.961277 -111.994747 174 7826ft 180kts
28-Oct-18 13:32 40.915932 -111.989514 173 7558ft 161kts
28-Oct-18 13:33 40.871443 -111.984373 173 6007ft 168kts
28-Oct-18 13:34 40.833656 -111.980093 174 4689ft 155kts
28-Oct-18 13:35 40.801987 -111.976479 173 4233ft 147kts
28-Oct-18 13:36 40.785848 -111.975000 204 4232ft 43kts
28-Oct-18 13:37 40.783658 -111.977018 6 4232ft 7kts
28-Oct-18 13:38 40.785018 -111.977290 285 4232ft 4kts
28-Oct-18 13:39 40.785057 -111.977477 287 4232ft 0kts
28-Oct-18 13:40 40.785057 -111.977477 287 4232ft 0kts
28-Oct-18 13:41 40.785057 -111.977477 287 4232ft 0kts
28-Oct-18 13:42 40.785057 -111.977477 287 4232ft 0kts

Navigation Log

Ident Type
Flight plan parsing failed, navigation log unavailable